createdAt,value
2018-12-07T00:05:07.561Z,12.26
2018-12-07T00:11:02.578Z,10.51
2018-12-07T00:16:57.648Z,10.06
2018-12-07T00:22:52.594Z,10.46
2018-12-07T00:28:47.572Z,9.51
2018-12-07T00:34:42.609Z,10.13
2018-12-07T00:40:37.596Z,9.98
2018-12-07T00:46:32.638Z,10.89
2018-12-07T00:52:27.655Z,9.29
2018-12-07T00:58:22.607Z,9.18
2018-12-07T01:04:17.608Z,9.16
2018-12-07T01:10:12.605Z,12
2018-12-07T01:16:07.643Z,11.67
2018-12-07T01:22:02.626Z,12.08
2018-12-07T01:27:57.645Z,11.2
2018-12-07T01:33:52.635Z,10.38
2018-12-07T01:39:47.655Z,10.34
2018-12-07T01:45:42.663Z,9.25
2018-12-07T01:51:37.677Z,9.41
2018-12-07T01:57:32.682Z,9.19
2018-12-07T02:03:27.671Z,8.96
2018-12-07T02:09:22.630Z,9.02
2018-12-07T02:15:17.708Z,8.96
2018-12-07T02:21:12.688Z,9.53
2018-12-07T02:27:07.649Z,9.09
2018-12-07T02:33:02.656Z,10.08
2018-12-07T02:38:57.655Z,9.14
2018-12-07T02:44:52.681Z,9.1
2018-12-07T02:50:47.711Z,9.69
2018-12-07T02:56:42.662Z,10.82
2018-12-07T03:02:37.687Z,9.06
2018-12-07T03:08:32.693Z,8.85
2018-12-07T03:14:27.677Z,9.88
2018-12-07T03:20:22.705Z,9.56
2018-12-07T03:26:17.683Z,8.3
2018-12-07T03:32:12.718Z,9.45
2018-12-07T03:38:07.708Z,8.88
2018-12-07T03:44:02.704Z,9.98
2018-12-07T03:49:57.720Z,10.07
2018-12-07T03:55:52.798Z,11.01
2018-12-07T04:01:47.710Z,10.06
2018-12-07T04:07:42.725Z,8.9
2018-12-07T04:13:37.705Z,8.77
2018-12-07T04:19:32.731Z,9.99
2018-12-07T04:25:27.707Z,8.73
2018-12-07T04:31:22.749Z,8.51
2018-12-07T04:37:17.744Z,7.82
2018-12-07T04:43:12.728Z,7.73
2018-12-07T04:49:07.752Z,9.33
2018-12-07T04:55:02.725Z,9.68
2018-12-07T05:00:57.728Z,8.8
2018-12-07T05:06:52.762Z,8.93
2018-12-07T05:12:47.738Z,8.36
2018-12-07T05:18:42.761Z,8.17
2018-12-07T05:24:37.761Z,7.68
2018-12-07T05:30:32.785Z,8.07
2018-12-07T05:36:27.752Z,8.37
2018-12-07T05:42:22.800Z,8.18
2018-12-07T05:48:23.564Z,7.83
2018-12-07T05:54:12.796Z,7.82
2018-12-07T06:00:07.763Z,8.23
2018-12-07T06:06:02.863Z,6.25
2018-12-07T06:11:57.821Z,6.48
2018-12-07T06:17:52.797Z,7.49
2018-12-07T06:23:47.790Z,7.57
2018-12-07T06:29:42.781Z,7.87
2018-12-07T06:35:37.797Z,8.45
2018-12-07T06:41:32.807Z,9.3
2018-12-07T06:47:27.813Z,12.93
2018-12-07T06:53:22.775Z,21.3
2018-12-07T06:59:17.839Z,8.15
2018-12-07T07:05:12.793Z,8.36
2018-12-07T07:11:07.840Z,8.2
2018-12-07T07:17:02.856Z,7.72
2018-12-07T07:22:57.801Z,8.57
2018-12-07T07:28:52.820Z,8.66
2018-12-07T07:34:47.855Z,6.81
2018-12-07T07:40:42.837Z,8
2018-12-07T07:46:37.843Z,7.35
2018-12-07T07:52:32.843Z,7.27
2018-12-07T07:58:27.901Z,7.66
2018-12-07T08:04:22.856Z,6.95
2018-12-07T08:10:17.845Z,7.7
2018-12-07T08:16:12.848Z,8.6
2018-12-07T08:22:07.929Z,9.1
2018-12-07T08:28:02.845Z,9.47
2018-12-07T08:33:57.858Z,10.26
2018-12-07T08:39:52.853Z,11.38
2018-12-07T08:45:47.870Z,23.77
2018-12-07T08:51:42.861Z,13.18
2018-12-07T08:57:37.877Z,10.15
2018-12-07T09:03:32.902Z,10.45
2018-12-07T09:09:27.918Z,10.52
2018-12-07T09:15:22.893Z,11.82
2018-12-07T09:21:17.878Z,11
2018-12-07T09:27:12.869Z,10.22
2018-12-07T09:33:07.884Z,9.87
2018-12-07T09:39:02.872Z,9.93
2018-12-07T09:44:57.882Z,11.03
2018-12-07T09:50:52.895Z,10.99
2018-12-07T09:56:47.934Z,10.97
2018-12-07T10:02:42.946Z,10.4
2018-12-07T10:08:37.965Z,9.82
2018-12-07T10:14:32.902Z,11.01
2018-12-07T10:20:27.899Z,11.78
2018-12-07T10:26:22.938Z,11.57
2018-12-07T10:32:17.964Z,10.64
2018-12-07T10:38:12.907Z,11.7
2018-12-07T10:44:07.905Z,10.83
2018-12-07T10:50:02.950Z,10.18
2018-12-07T10:55:57.918Z,10.32
2018-12-07T11:01:52.926Z,9.86
2018-12-07T11:07:47.934Z,9.35
2018-12-07T11:13:42.977Z,9.78
2018-12-07T11:19:37.950Z,7.27
2018-12-07T11:25:32.972Z,7.39
2018-12-07T11:31:27.962Z,8.95
2018-12-07T11:37:22.991Z,8.03
2018-12-07T11:43:17.999Z,7.73
2018-12-07T11:49:12.959Z,7.57
2018-12-07T11:55:07.970Z,7.17
2018-12-07T12:01:02.960Z,7.62
2018-12-07T12:06:58.021Z,7.09
2018-12-07T12:12:52.995Z,8.12
2018-12-07T12:18:47.995Z,5.65
2018-12-07T12:24:42.988Z,7.21
2018-12-07T12:30:37.990Z,6.76
2018-12-07T12:36:32.998Z,6.22
2018-12-07T12:42:28.028Z,6.64
2018-12-07T12:48:23.005Z,5.71
2018-12-07T12:54:18.000Z,5.92
2018-12-07T13:00:13.035Z,6.31
2018-12-07T13:06:08.013Z,6.58
2018-12-07T13:12:03.006Z,7.1
2018-12-07T13:17:58.043Z,7.19
2018-12-07T13:23:53.026Z,6.66
2018-12-07T13:29:48.042Z,7.64
2018-12-07T13:35:43.091Z,7.08
2018-12-07T13:41:38.036Z,7.13
2018-12-07T13:47:33.336Z,7.56
2018-12-07T13:53:28.090Z,7.52
2018-12-07T13:59:23.058Z,7.03
2018-12-07T14:05:18.146Z,6.67
2018-12-07T14:11:13.205Z,8.28
2018-12-07T14:17:08.083Z,15.2
2018-12-07T14:23:03.093Z,9.7
2018-12-07T14:28:58.089Z,10.71
2018-12-07T14:34:53.304Z,9.78
2018-12-07T14:40:48.109Z,10.29
2018-12-07T14:46:43.246Z,8.46
2018-12-07T14:52:38.196Z,10.41
2018-12-07T14:58:33.100Z,9.62
2018-12-07T15:04:28.148Z,10.66
2018-12-07T15:10:23.103Z,9.63
2018-12-07T15:16:18.102Z,8.6
2018-12-07T15:22:13.217Z,8.86
2018-12-07T15:28:08.254Z,9.49
2018-12-07T15:34:03.091Z,8.74
2018-12-07T15:39:58.180Z,10.07
2018-12-07T15:45:53.119Z,8.56
2018-12-07T15:51:48.117Z,9.87
2018-12-07T15:57:43.166Z,9.37
2018-12-07T16:03:38.161Z,9.53
2018-12-07T16:09:33.204Z,11.49
2018-12-07T16:15:28.290Z,9.25
2018-12-07T16:21:23.337Z,9.16
2018-12-07T16:27:18.314Z,9.23
2018-12-07T16:33:13.429Z,9.54
2018-12-07T16:39:08.380Z,10.39
2018-12-07T16:45:03.152Z,11.93
2018-12-07T16:50:58.449Z,11.55
2018-12-07T16:56:53.172Z,15.46
2018-12-07T17:02:48.321Z,14.3
2018-12-07T17:08:43.199Z,11.87
2018-12-07T17:14:38.321Z,11.16
2018-12-07T17:20:33.373Z,11.56
2018-12-07T17:26:28.196Z,12.16
2018-12-07T17:32:23.206Z,24.09
2018-12-07T17:38:18.311Z,11.8
2018-12-07T17:44:13.281Z,10.54
2018-12-07T17:50:08.218Z,11.42
2018-12-07T17:56:03.407Z,12.55
2018-12-07T18:01:58.179Z,13.34
2018-12-07T18:07:53.276Z,14.09
2018-12-07T18:13:48.569Z,13.42
2018-12-07T18:19:43.471Z,12.73
2018-12-07T18:25:38.347Z,14.04
2018-12-07T18:31:33.309Z,14.81
2018-12-07T18:37:28.501Z,16.66
2018-12-07T18:43:23.296Z,17.89
2018-12-07T18:49:18.337Z,18.66
2018-12-07T18:55:13.300Z,15.84
2018-12-07T19:01:08.428Z,15.08
2018-12-07T19:07:03.286Z,16.66
2018-12-07T19:13:00.427Z,17.16
2018-12-07T19:18:53.323Z,20.35
2018-12-07T19:24:48.462Z,20
2018-12-07T19:30:43.310Z,21.19
2018-12-07T19:36:38.456Z,21.3
2018-12-07T19:42:33.258Z,21.61
2018-12-07T19:48:28.409Z,31.97
2018-12-07T19:54:23.352Z,28.68
2018-12-07T20:00:18.238Z,28.12
2018-12-07T20:06:13.412Z,25.41
2018-12-07T20:12:08.291Z,23.54
2018-12-07T20:18:03.370Z,21.83
2018-12-07T20:23:58.599Z,22.13
2018-12-07T20:29:53.336Z,22.01
2018-12-07T20:35:48.342Z,22.35
2018-12-07T20:41:43.309Z,22.55
2018-12-07T20:47:38.356Z,22.55
2018-12-07T20:53:33.407Z,21.47
2018-12-07T20:59:28.293Z,23.49
2018-12-07T21:05:23.324Z,22.68
2018-12-07T21:11:18.325Z,22.58
2018-12-07T21:17:13.418Z,21.1
2018-12-07T21:23:08.495Z,19.62
2018-12-07T21:29:03.560Z,20.9
2018-12-07T21:34:58.296Z,19.46
2018-12-07T21:40:53.509Z,19.58
2018-12-07T21:46:48.549Z,18.71
2018-12-07T21:52:43.480Z,18.89
2018-12-07T21:58:38.350Z,19.05
2018-12-07T22:04:33.414Z,20.37
2018-12-07T22:10:28.331Z,17.3
2018-12-07T22:16:23.314Z,17.23
2018-12-07T22:22:18.662Z,16.45
2018-12-07T22:28:13.348Z,16.82
2018-12-07T22:34:08.546Z,15.79
2018-12-07T22:40:03.354Z,15.18
2018-12-07T22:45:58.378Z,12.88
2018-12-07T22:51:53.335Z,5.88
2018-12-07T22:57:48.375Z,3.3
2018-12-07T23:03:43.367Z,2.66
2018-12-07T23:09:38.370Z,2.47
2018-12-07T23:15:33.376Z,2.2
2018-12-07T23:21:28.390Z,2.29
2018-12-07T23:27:23.372Z,2.83
2018-12-07T23:33:18.395Z,3.07
2018-12-07T23:39:13.370Z,2.71
2018-12-07T23:45:08.408Z,2.45
2018-12-07T23:51:03.407Z,2.33
2018-12-07T23:56:58.397Z,2.35
